Time;durP1;ratioP1;P1;durP2;ratioP2;P2;SDS_P1;SDS_P2;PMS_P1;PMS_P2;Temp;Humidity;BMP_temperature;BMP_pressure;BME280_temperature;BME280_humidity;BME280_pressure;Samples;Min_cycle;Max_cycle;Signal;HPM_P1;HPM_P2
2023/01/09 05:51:38;;;;;;;;;0.75;0.00;;;;;8.40;100.00;99813.66;6054642;22;47349;-64
2023/01/09 05:54:06;;;;;;;;;1.00;0.00;;;;;8.45;100.00;99851.19;6271073;22;49709;-66
2023/01/09 05:56:31;;;;;;;;;0.75;0.75;;;;;9.24;100.00;99967.47;6265341;22;49867;-68
2023/01/09 05:58:56;;;;;;;;;1.00;0.00;;;;;9.07;100.00;99924.44;6265105;22;49693;-72
2023/01/09 06:01:22;;;;;;;;;0.25;0.00;;;;;9.15;100.00;99943.75;6265072;22;60714;-74
2023/01/09 06:03:47;;;;;;;;;1.75;1.00;;;;;8.64;100.00;99861.06;6269409;22;51261;-69
2023/01/09 06:06:12;;;;;;;;;0.00;0.00;;;;;9.11;100.00;99955.06;6271061;22;49502;-70
2023/01/09 06:08:38;;;;;;;;;1.75;0.00;;;;;9.20;100.00;99957.81;6265601;22;49564;-70
2023/01/09 06:11:03;;;;;;;;;0.50;0.50;;;;;9.16;100.00;99943.78;6266300;22;59259;-77
2023/01/09 06:13:28;;;;;;;;;1.00;1.00;;;;;9.21;100.00;99951.72;6267016;22;50444;-70
2023/01/09 06:15:54;;;;;;;;;0.00;0.00;;;;;9.20;100.00;99975.28;6269469;22;49687;-74
2023/01/09 06:18:19;;;;;;;;;0.50;0.50;;;;;9.06;100.00;99947.13;6265858;22;51906;-70
2023/01/09 06:20:44;;;;;;;;;0.50;0.00;;;;;8.57;100.00;99882.75;6266486;22;49727;-74
2023/01/09 06:23:10;;;;;;;;;0.00;0.00;;;;;8.95;100.00;99953.97;6264557;22;49861;-72
2023/01/09 06:25:35;;;;;;;;;0.50;0.00;;;;;8.67;100.00;99923.88;6267480;22;50001;-74
2023/01/09 06:28:01;;;;;;;;;3.00;1.50;;;;;8.97;100.00;99982.78;6266829;22;50999;-71
2023/01/09 06:30:26;;;;;;;;;0.75;0.00;;;;;9.01;100.00;99998.56;6264773;22;52075;-76
2023/01/09 06:32:51;;;;;;;;;1.00;1.00;;;;;8.54;100.00;99928.06;6271288;22;49759;-82
2023/01/09 06:35:19;;;;;;;;;2.75;1.00;;;;;8.64;100.00;99960.47;6264983;22;49809;-84
2023/01/09 06:37:46;;;;;;;;;1.00;0.50;;;;;7.30;100.00;99712.56;6266424;22;50528;-83
2023/01/09 06:40:13;;;;;;;;;1.00;1.00;;;;;7.04;100.00;99684.25;6267650;22;49600;-77
2023/01/09 06:42:41;;;;;;;;;0.50;0.00;;;;;7.96;100.00;99826.88;6267797;22;49892;-76
2023/01/09 06:45:07;;;;;;;;;1.00;1.00;;;;;9.12;100.00;100017.94;6267456;22;49995;-72
2023/01/09 06:47:33;;;;;;;;;0.75;0.00;;;;;8.84;100.00;99972.13;6264905;22;50792;-74
2023/01/09 06:49:58;;;;;;;;;0.00;0.00;;;;;8.87;100.00;99984.38;6267258;22;49576;-73
2023/01/09 06:52:23;;;;;;;;;1.00;0.00;;;;;8.67;100.00;99949.16;6265358;22;61833;-69
2023/01/09 06:54:48;;;;;;;;;1.00;1.00;;;;;9.08;100.00;100018.75;6266496;22;49628;-68
2023/01/09 06:57:15;;;;;;;;;5.00;2.25;;;;;8.60;100.00;99937.75;6267080;22;52622;-70
2023/01/09 06:59:40;;;;;;;;;0.50;0.50;;;;;8.99;100.00;100017.75;6267743;22;49716;-71
2023/01/09 07:02:13;;;;;;;;;0.25;0.00;;;;;8.94;100.00;99993.22;6267368;22;49630;-71
2023/01/09 07:04:38;;;;;;;;;0.00;0.00;;;;;9.07;100.00;100032.72;6267830;22;49839;-70
2023/01/09 07:07:03;;;;;;;;;0.50;0.00;;;;;8.68;100.00;99964.91;6266774;22;54972;-71
2023/01/09 07:09:29;;;;;;;;;2.00;0.25;;;;;9.10;100.00;100051.06;6267733;22;49577;-70
2023/01/09 07:11:54;;;;;;;;;0.00;0.00;;;;;8.88;100.00;99999.25;6267586;22;49859;-69
2023/01/09 07:14:19;;;;;;;;;2.00;1.00;;;;;8.34;100.00;99919.00;6267343;22;49840;-70
2023/01/09 07:16:44;;;;;;;;;0.00;0.00;;;;;8.86;100.00;100008.78;6266864;22;49760;-70
2023/01/09 07:19:10;;;;;;;;;1.75;0.00;;;;;8.74;100.00;99992.91;6272005;22;49649;-77
2023/01/09 07:21:35;;;;;;;;;2.25;1.00;;;;;8.83;100.00;100006.13;6269795;22;50171;-66
2023/01/09 07:24:00;;;;;;;;;1.00;1.00;;;;;9.13;100.00;100045.00;6266123;22;56312;-73
2023/01/09 07:26:26;;;;;;;;;2.00;2.00;;;;;9.09;100.00;100062.41;6267251;22;50634;-72
2023/01/09 07:28:51;;;;;;;;;0.25;0.25;;;;;9.06;100.00;100049.25;6267108;22;49704;-71
2023/01/09 07:31:17;;;;;;;;;0.50;0.50;;;;;8.97;100.00;100022.03;6267572;22;49653;-71
2023/01/09 07:33:42;;;;;;;;;0.00;0.00;;;;;8.80;100.00;100006.97;6266539;22;49562;-71
2023/01/09 07:36:07;;;;;;;;;0.00;0.00;;;;;8.82;100.00;100007.88;6265169;22;59115;-71
2023/01/09 07:38:33;;;;;;;;;0.00;0.00;;;;;8.96;100.00;100044.72;6267536;22;49728;-70
2023/01/09 07:40:58;;;;;;;;;1.00;1.00;;;;;9.03;100.00;100054.44;6267997;22;49636;-70
2023/01/09 07:43:23;;;;;;;;;1.00;0.00;;;;;8.92;100.00;100052.53;6267578;22;49999;-71
2023/01/09 07:45:49;;;;;;;;;0.75;0.75;;;;;9.02;100.00;100084.09;6266776;22;51370;-72
2023/01/09 07:48:14;;;;;;;;;0.00;0.00;;;;;8.94;100.00;100077.84;6266722;22;55334;-71
2023/01/09 07:50:39;;;;;;;;;0.00;0.00;;;;;8.96;100.00;100075.25;6267273;22;50374;-71
2023/01/09 07:53:05;;;;;;;;;0.00;0.00;;;;;8.79;100.00;100051.44;6266666;22;49954;-70
2023/01/09 07:55:30;;;;;;;;;0.00;0.00;;;;;8.84;100.00;100062.84;6266625;22;60426;-71
2023/01/09 07:57:55;;;;;;;;;0.00;0.00;;;;;8.81;100.00;100057.59;6267655;22;49509;-71
2023/01/09 08:00:21;;;;;;;;;0.00;0.00;;;;;9.13;100.00;100110.47;6267914;22;49706;-71
2023/01/09 08:02:53;;;;;;;;;2.00;0.25;;;;;8.96;100.00;100086.59;6267326;22;49969;-71
2023/01/09 08:05:18;;;;;;;;;1.00;1.00;;;;;8.84;100.00;100065.47;6267240;22;49807;-71
2023/01/09 08:07:44;;;;;;;;;1.00;1.00;;;;;8.56;100.00;100020.53;6267121;22;49700;-71
2023/01/09 08:10:10;;;;;;;;;0.00;0.00;;;;;8.80;100.00;100059.31;6267527;22;51052;-70
2023/01/09 08:12:35;;;;;;;;;0.00;0.00;;;;;8.88;100.00;100081.28;6267536;22;49909;-71
2023/01/09 08:15:00;;;;;;;;;0.75;0.00;;;;;8.85;100.00;100075.09;6267046;22;57168;-70
2023/01/09 08:17:26;;;;;;;;;0.75;0.00;;;;;8.89;100.00;100097.84;6267180;22;49885;-71
2023/01/09 08:19:51;;;;;;;;;0.00;0.00;;;;;8.71;100.00;100067.00;6267818;22;49515;-72
2023/01/09 08:22:16;;;;;;;;;0.00;0.00;;;;;9.10;100.00;100145.34;6266959;22;49715;-72
2023/01/09 08:24:42;;;;;;;;;0.00;0.00;;;;;8.96;100.00;100125.88;6266843;22;58169;-71
2023/01/09 08:27:07;;;;;;;;;0.00;0.00;;;;;8.83;100.00;100105.59;6267457;22;49533;-71
2023/01/09 08:29:32;;;;;;;;;0.00;0.00;;;;;9.10;100.00;100154.94;6267588;22;49759;-71
2023/01/09 08:31:58;;;;;;;;;0.00;0.00;;;;;8.51;100.00;100068.41;6267214;22;49752;-71
2023/01/09 08:34:23;;;;;;;;;0.00;0.00;;;;;9.00;100.00;100138.19;6266622;22;62712;-70
2023/01/09 08:36:48;;;;;;;;;0.00;0.00;;;;;8.99;100.00;100154.75;6267439;22;49995;-72
2023/01/09 08:39:14;;;;;;;;;2.00;1.00;;;;;8.63;100.00;100075.59;6265150;22;49785;-71
2023/01/09 08:47:07;;;;;;;;;0.25;0.25;;;;;9.07;100.00;100178.41;6267292;22;49932;-82
2023/01/09 08:49:36;;;;;;;;;0.00;0.00;;;;;9.06;100.00;100174.03;6267288;22;49898;-70
2023/01/09 08:52:01;;;;;;;;;0.00;0.00;;;;;8.85;100.00;100151.88;6266619;22;49690;-68
2023/01/09 08:54:26;;;;;;;;;0.25;0.00;;;;;8.62;100.00;100124.41;6267350;22;50647;-72
2023/01/09 08:56:52;;;;;;;;;2.00;1.00;;;;;8.87;100.00;100165.84;6267127;22;49903;-68
2023/01/09 08:59:17;;;;;;;;;1.00;1.00;;;;;8.88;100.00;100161.53;6260506;22;59051;-68
2023/01/09 09:01:42;;;;;;;;;0.25;0.25;;;;;9.10;100.00;100202.06;6245236;22;49752;-69
2023/01/09 09:04:08;;;;;;;;;0.00;0.00;;;;;8.92;100.00;100165.97;6265003;22;51570;-68
2023/01/09 09:06:33;;;;;;;;;1.00;1.00;;;;;8.84;100.00;100146.59;6261444;22;49715;-70
2023/01/09 09:09:02;;;;;;;;;1.00;1.00;;;;;9.06;100.00;100172.31;6261956;22;50462;-69
2023/01/09 09:11:32;;;;;;;;;1.00;1.00;;;;;9.16;100.00;100189.06;6260238;22;49800;-67
2023/01/09 09:13:58;;;;;;;;;4.00;0.00;;;;;9.00;100.00;100173.94;6257993;22;50924;-70
2023/01/09 09:16:24;;;;;;;;;0.00;0.00;;;;;8.51;100.00;100098.06;6258245;22;49571;-67
2023/01/09 09:18:50;;;;;;;;;0.75;0.75;;;;;9.26;100.00;100221.53;6257098;22;49606;-69
2023/01/09 09:21:15;;;;;;;;;0.00;0.00;;;;;7.96;100.00;100018.53;6259504;22;49623;-67
2023/01/09 09:23:41;;;;;;;;;0.50;0.25;;;;;8.99;100.00;100198.38;6250792;22;51024;-67
2023/01/09 09:26:06;;;;;;;;;0.75;0.00;;;;;9.25;100.00;100249.44;6257639;22;49767;-68
2023/01/09 09:28:31;;;;;;;;;0.00;0.00;;;;;8.87;100.00;100170.22;6260781;22;49905;-69
2023/01/09 09:30:57;;;;;;;;;0.00;0.00;;;;;9.14;100.00;100214.34;6246058;22;49964;-69
2023/01/09 09:33:22;;;;;;;;;0.00;0.00;;;;;8.80;100.00;100166.63;6253200;22;57616;-68
2023/01/09 09:35:47;;;;;;;;;0.25;0.25;;;;;9.20;100.00;100251.13;6259166;22;49640;-68
2023/01/09 09:38:13;;;;;;;;;1.25;0.25;;;;;9.05;100.00;100214.16;6262290;22;49939;-69
2023/01/09 09:44:42;;;;;;;;;0.75;0.00;;;;;9.36;100.00;100281.06;6262694;22;49624;-68
2023/01/09 09:47:01;;;;;;;;;0.50;0.25;;;;;9.27;100.00;100232.06;6262253;22;49683;-73
2023/01/09 09:49:34;;;;;;;;;0.00;0.00;;;;;9.52;100.00;100270.03;6258432;22;49790;-69
2023/01/09 09:52:18;;;;;;;;;0.00;0.00;;;;;9.83;100.00;100292.38;6265551;22;49796;-70
2023/01/09 09:54:49;;;;;;;;;0.00;0.00;;;;;9.75;100.00;100266.06;6266376;22;50936;-72
2023/01/09 09:57:26;;;;;;;;;0.00;0.00;;;;;9.12;100.00;100154.09;6266317;22;49994;-72
2023/01/09 09:59:52;;;;;;;;;0.00;0.00;;;;;9.90;100.00;100288.13;6267212;22;49608;-72
2023/01/09 10:02:29;;;;;;;;;1.75;1.00;;;;;10.18;100.00;100321.78;6267199;22;49828;-68
2023/01/09 10:05:02;;;;;;;;;2.00;1.00;;;;;10.02;100.00;100285.69;6266136;22;49958;-74
2023/01/09 10:07:40;;;;;;;;;3.50;0.75;;;;;10.20;100.00;100282.47;6266539;22;49823;-69
2023/01/09 10:10:14;;;;;;;;;0.00;0.00;;;;;9.92;100.00;100250.56;6266452;22;49701;-71
2023/01/09 10:12:56;;;;;;;;;0.00;0.00;;;;;10.07;100.00;100275.28;6266064;22;49919;-69
2023/01/09 10:15:37;;;;;;;;;0.00;0.00;;;;;9.71;100.00;100213.53;6266636;22;49776;-70
2023/01/09 10:18:24;;;;;;;;;1.00;0.00;;;;;10.37;100.00;100349.22;6268331;22;49691;-73
2023/01/09 10:21:02;;;;;;;;;1.00;1.00;;;;;10.09;100.00;100305.03;6265067;22;49682;-72
2023/01/09 10:23:54;;;;;;;;;0.00;0.00;;;;;10.27;100.00;100368.31;6266583;22;49742;-71
2023/01/09 10:26:42;;;;;;;;;0.50;0.00;;;;;10.22;100.00;100369.94;6264342;22;49844;-68
2023/01/09 10:29:39;;;;;;;;;0.00;0.00;;;;;10.22;100.00;100367.31;6265642;22;49884;-71
2023/01/09 10:32:26;;;;;;;;;1.00;1.00;;;;;10.21;100.00;100379.53;6264088;22;49931;-73
2023/01/09 10:35:10;;;;;;;;;2.25;0.00;;;;;10.28;100.00;100376.19;6264096;22;49820;-66
2023/01/09 10:37:46;;;;;;;;;2.00;1.00;;;;;10.28;100.00;100385.81;6262684;22;49696;-65
2023/01/09 10:40:21;;;;;;;;;1.00;0.50;;;;;10.20;100.00;100380.38;6254597;22;50046;-68
2023/01/09 10:42:53;;;;;;;;;0.00;0.00;;;;;10.02;100.00;100372.22;6258262;22;49603;-71
2023/01/09 10:45:22;;;;;;;;;0.00;0.00;;;;;10.14;100.00;100382.06;6262754;22;49950;-68
2023/01/09 10:47:48;;;;;;;;;1.50;0.00;;;;;9.85;100.00;100352.72;6263611;22;50894;-70
2023/01/09 10:50:25;;;;;;;;;0.25;0.00;;;;;9.93;100.00;100361.56;6264773;22;49826;-64
2023/01/09 10:52:54;;;;;;;;;0.00;0.00;;;;;9.87;100.00;100354.50;6263610;22;49786;-66
2023/01/09 10:55:28;;;;;;;;;1.00;1.00;;;;;10.11;100.00;100392.47;6262987;22;49803;-65
2023/01/09 10:57:58;;;;;;;;;0.00;0.00;;;;;9.88;100.00;100348.41;6264577;22;50616;-70
2023/01/09 11:00:24;;;;;;;;;0.00;0.00;;;;;9.95;100.00;100360.75;6265394;22;49631;-72
2023/01/09 11:02:51;;;;;;;;;2.50;2.50;;;;;10.15;100.00;100397.81;6265518;22;49714;-67
2023/01/09 11:05:20;;;;;;;;;4.00;3.00;;;;;9.82;100.00;100331.69;6265630;22;49632;-65
2023/01/09 11:07:54;;;;;;;;;0.00;0.00;;;;;10.29;100.00;100406.81;6265569;22;49801;-65
2023/01/09 11:10:20;;;;;;;;;0.00;0.00;;;;;10.37;100.00;100398.19;6266670;22;49817;-70
2023/01/09 11:12:46;;;;;;;;;0.00;0.00;;;;;10.41;100.00;100376.38;6264294;22;49576;-73
2023/01/09 11:15:14;;;;;;;;;1.00;1.00;;;;;10.64;100.00;100395.09;6266675;22;49882;-67
2023/01/09 11:17:40;;;;;;;;;0.00;0.00;;;;;10.63;100.00;100378.47;6266007;22;50612;-66
2023/01/09 11:20:12;;;;;;;;;2.50;1.25;;;;;10.43;100.00;100345.81;6266080;22;49630;-66
2023/01/09 11:22:43;;;;;;;;;3.00;2.00;;;;;10.65;100.00;100363.63;6266001;22;49640;-66
2023/01/09 11:25:16;;;;;;;;;0.25;0.25;;;;;10.39;100.00;100308.13;6267718;22;49655;-68
2023/01/09 11:27:41;;;;;;;;;3.75;2.50;;;;;10.74;100.00;100369.00;6267326;22;49833;-68
2023/01/09 11:30:25;;;;;;;;;1.00;1.00;;;;;10.51;100.00;100326.66;6267451;22;49865;-68
2023/01/09 11:32:50;;;;;;;;;1.50;1.50;;;;;10.71;100.00;100352.31;6264651;22;49648;-67
2023/01/09 11:35:25;;;;;;;;;3.00;2.75;;;;;10.87;100.00;100375.28;6266309;22;49814;-72
2023/01/09 11:38:03;;;;;;;;;2.50;1.25;;;;;10.45;100.00;100320.47;6266271;22;49892;-66
2023/01/09 11:40:35;;;;;;;;;1.50;0.50;;;;;10.76;100.00;100384.78;6265923;22;49635;-67
2023/01/09 11:43:37;;;;;;;;;2.50;2.50;;;;;10.65;100.00;100370.63;6266180;22;49958;-68
2023/01/09 11:46:06;;;;;;;;;2.00;2.00;;;;;10.72;100.00;100372.47;6266166;22;49513;-67
2023/01/09 11:48:37;;;;;;;;;3.00;3.00;;;;;10.69;100.00;100393.41;6265770;22;49981;-67
2023/01/09 11:51:23;;;;;;;;;2.00;2.00;;;;;10.43;100.00;100353.69;6266016;22;49612;-69
2023/01/09 11:53:56;;;;;;;;;3.50;3.00;;;;;10.68;100.00;100407.41;6264503;22;49836;-69
2023/01/09 11:56:22;;;;;;;;;1.25;1.00;;;;;10.38;100.00;100361.47;6266753;22;49962;-67
2023/01/09 11:58:47;;;;;;;;;0.75;0.75;;;;;10.35;100.00;100356.19;6264880;22;50646;-69
2023/01/09 12:01:41;;;;;;;;;1.00;1.00;;;;;10.75;100.00;100415.41;6266954;22;49868;-69
2023/01/09 12:04:32;;;;;;;;;3.25;1.75;;;;;10.81;100.00;100423.38;6265580;22;49526;-67
2023/01/09 12:07:22;;;;;;;;;3.75;1.00;;;;;10.33;100.00;100336.94;6267301;22;49728;-69
2023/01/09 12:09:56;;;;;;;;;1.75;0.00;;;;;10.84;100.00;100422.53;6266868;22;50527;-68
2023/01/09 12:12:28;;;;;;;;;2.50;2.25;;;;;10.93;100.00;100416.53;6267269;22;49598;-71
2023/01/09 12:15:24;;;;;;;;;2.00;1.50;;;;;10.92;100.00;100412.13;6266874;22;49553;-68
2023/01/09 12:18:22;;;;;;;;;1.00;1.00;;;;;11.08;100.00;100427.22;6267168;22;49788;-67
2023/01/09 12:20:50;;;;;;;;;2.25;0.50;;;;;11.10;100.00;100417.66;6266530;22;51279;-68
2023/01/09 12:24:06;;;;;;;;;3.00;1.00;;;;;11.09;100.00;100414.09;6267181;22;49708;-68
2023/01/09 12:26:41;;;;;;;;;2.00;1.00;;;;;11.10;100.00;100396.63;6226238;22;49588;-69
2023/01/09 12:29:34;;;;;;;;;1.50;0.50;;;;;11.26;100.00;100419.59;6267211;22;49561;-74
2023/01/09 12:32:12;;;;;;;;;2.00;0.75;;;;;11.17;100.00;100411.59;6266815;22;50813;-71
2023/01/09 12:35:08;;;;;;;;;3.25;3.00;;;;;11.21;100.00;100436.16;6266593;22;49621;-75
2023/01/09 12:38:10;;;;;;;;;1.00;1.00;;;;;11.18;100.00;100434.38;6265810;22;49517;-68
2023/01/09 12:40:35;;;;;;;;;4.50;2.75;;;;;11.11;100.00;100428.16;6267357;22;49910;-68
2023/01/09 12:43:28;;;;;;;;;1.25;1.00;;;;;11.03;100.00;100457.81;6267321;22;49898;-75
2023/01/09 12:46:19;;;;;;;;;0.00;0.00;;;;;10.96;100.00;100441.06;6264903;22;49868;-68
2023/01/09 12:49:11;;;;;;;;;0.00;0.00;;;;;10.70;100.00;100419.69;6266962;22;50098;-72
2023/01/09 12:51:46;;;;;;;;;3.00;1.75;;;;;10.71;100.00;100426.72;6266570;22;49759;-68
2023/01/09 12:54:32;;;;;;;;;3.50;3.00;;;;;10.75;100.00;100439.03;6264819;22;51878;-68
2023/01/09 12:57:23;;;;;;;;;0.25;0.00;;;;;10.69;100.00;100441.56;6264782;22;49877;-72
2023/01/09 12:59:58;;;;;;;;;1.00;1.00;;;;;10.70;100.00;100435.44;6264243;22;49829;-69
2023/01/09 13:02:52;;;;;;;;;1.00;1.00;;;;;10.64;100.00;100444.97;6267477;22;49582;-69
2023/01/09 13:05:25;;;;;;;;;0.00;0.00;;;;;10.76;100.00;100466.16;6267212;22;49813;-76
2023/01/09 13:07:59;;;;;;;;;1.00;1.00;;;;;10.65;100.00;100492.25;6265685;22;49635;-74
2023/01/09 13:10:32;;;;;;;;;0.00;0.00;;;;;10.41;100.00;100463.84;6266904;22;49614;-75
2023/01/09 13:13:05;;;;;;;;;0.00;0.00;;;;;10.49;100.00;100511.22;6266419;22;49754;-74
2023/01/09 13:15:52;;;;;;;;;0.50;0.00;;;;;10.14;100.00;100484.34;6266791;22;49740;-68
2023/01/09 13:18:34;;;;;;;;;1.75;0.75;;;;;10.06;100.00;100502.56;6267066;22;50259;-75
2023/01/09 13:21:00;;;;;;;;;0.00;0.00;;;;;9.96;100.00;100518.97;6266927;22;49644;-72
2023/01/09 13:23:56;;;;;;;;;0.75;0.75;;;;;9.99;100.00;100522.53;6265231;22;49859;-71
2023/01/09 13:26:27;;;;;;;;;0.00;0.00;;;;;9.93;100.00;100490.94;6267250;22;49748;-74
2023/01/09 13:29:17;;;;;;;;;0.75;0.75;;;;;10.12;100.00;100526.25;6266544;22;49774;-68
2023/01/09 13:32:19;;;;;;;;;0.00;0.00;;;;;9.97;100.00;100499.75;6266437;22;49656;-74
2023/01/09 13:34:47;;;;;;;;;3.00;1.25;;;;;10.07;100.00;100533.19;6265786;22;49783;-71
2023/01/09 13:37:26;;;;;;;;;1.75;0.00;;;;;9.99;100.00;100519.03;6266545;22;50804;-72
2023/01/09 13:40:17;;;;;;;;;0.00;0.00;;;;;10.04;100.00;100541.00;6290717;22;49749;-75
2023/01/09 13:42:45;;;;;;;;;0.00;0.00;;;;;9.91;100.00;100544.22;6255917;22;49750;-69
2023/01/09 13:45:16;;;;;;;;;1.00;1.00;;;;;9.94;100.00;100563.53;6267434;22;49703;-74
2023/01/09 13:47:43;;;;;;;;;0.75;0.75;;;;;9.64;100.00;100505.22;6266154;22;50973;-70
2023/01/09 13:50:08;;;;;;;;;0.75;0.00;;;;;9.88;100.00;100566.03;6267119;22;49648;-69
2023/01/09 13:52:35;;;;;;;;;1.00;1.00;;;;;9.80;100.00;100574.56;6266104;22;49695;-76
2023/01/09 13:55:14;;;;;;;;;0.75;0.00;;;;;9.71;100.00;100580.50;6266783;22;49898;-70
2023/01/09 13:58:05;;;;;;;;;0.75;0.75;;;;;9.56;100.00;100588.94;6264758;22;51288;-73
2023/01/09 14:00:33;;;;;;;;;2.00;2.00;;;;;9.46;100.00;100569.50;6264910;22;49531;-68
2023/01/09 14:03:07;;;;;;;;;0.00;0.00;;;;;9.32;100.00;100570.91;6266337;22;49779;-68
2023/01/09 14:05:32;;;;;;;;;0.25;0.00;;;;;9.33;100.00;100587.53;6266734;22;49672;-73
2023/01/09 14:08:10;;;;;;;;;0.00;0.00;;;;;9.08;100.00;100539.81;6266190;22;49561;-68
2023/01/09 14:10:48;;;;;;;;;2.75;1.00;;;;;9.13;100.00;100556.50;6265103;22;49763;-75
2023/01/09 14:13:19;;;;;;;;;0.25;0.00;;;;;9.03;100.00;100566.75;6267052;22;49730;-67
2023/01/09 14:15:46;;;;;;;;;2.00;0.50;;;;;9.16;100.00;100588.00;6266917;22;49715;-67
2023/01/09 14:18:18;;;;;;;;;1.25;0.25;;;;;9.25;100.00;100604.78;6266105;22;49859;-67
2023/01/09 14:20:54;;;;;;;;;1.00;1.00;;;;;9.28;100.00;100600.53;6266248;22;49521;-67
2023/01/09 14:23:24;;;;;;;;;2.00;2.00;;;;;8.92;100.00;100548.16;6266523;22;49576;-69
2023/01/09 14:25:51;;;;;;;;;1.75;1.75;;;;;9.27;100.00;100606.63;6266922;22;49636;-67
2023/01/09 14:28:26;;;;;;;;;1.00;1.00;;;;;9.12;100.00;100587.91;6266800;22;50995;-67
2023/01/09 14:30:51;;;;;;;;;2.00;1.50;;;;;9.45;100.00;100645.44;6265710;22;49492;-67
2023/01/09 14:33:17;;;;;;;;;1.50;1.00;;;;;9.53;100.00;100643.00;6266815;22;49601;-66
2023/01/09 14:36:04;;;;;;;;;1.00;1.00;;;;;9.64;100.00;100647.63;6267182;22;49896;-66
2023/01/09 14:38:45;;;;;;;;;1.25;0.75;;;;;9.71;100.00;100654.78;6264177;22;51719;-66
2023/01/09 14:44:33;;;;;;;;;0.00;0.00;;;;;9.61;100.00;100649.31;6266546;22;49718;-67
2023/01/09 14:47:05;;;;;;;;;1.00;1.00;;;;;9.57;100.00;100657.97;6249152;22;50292;-67
2023/01/09 14:49:44;;;;;;;;;0.25;0.25;;;;;9.53;100.00;100658.72;6266133;22;49965;-65
2023/01/09 14:52:31;;;;;;;;;2.25;1.00;;;;;9.51;100.00;100682.28;6265660;22;49794;-67
2023/01/09 14:55:00;;;;;;;;;0.75;0.75;;;;;9.51;100.00;100694.50;6266345;22;49762;-68
2023/01/09 14:57:30;;;;;;;;;0.00;0.00;;;;;9.51;100.00;100689.25;6266282;22;49736;-67
2023/01/09 15:00:05;;;;;;;;;0.75;0.75;;;;;9.29;100.00;100674.75;6267449;22;50522;-67
2023/01/09 15:02:35;;;;;;;;;1.00;1.00;;;;;9.42;100.00;100705.63;6267582;22;49730;-68
2023/01/09 15:05:14;;;;;;;;;0.75;0.75;;;;;9.31;100.00;100710.59;6267579;22;49756;-69
2023/01/09 15:07:54;;;;;;;;;1.00;1.00;;;;;9.08;100.00;100670.75;6264496;22;49930;-67
2023/01/09 15:10:26;;;;;;;;;0.75;0.75;;;;;9.38;100.00;100728.25;6267631;22;49892;-67
2023/01/09 15:12:54;;;;;;;;;1.00;1.00;;;;;9.44;100.00;100714.41;6267781;22;49737;-69
2023/01/09 15:15:21;;;;;;;;;4.50;2.00;;;;;9.42;100.00;100727.47;6265170;22;49973;-68
2023/01/09 15:17:56;;;;;;;;;0.50;0.50;;;;;9.44;100.00;100743.22;6267378;22;49867;-69
2023/01/09 15:20:27;;;;;;;;;1.00;1.00;;;;;9.39;100.00;100742.25;6267204;22;49831;-67
2023/01/09 15:22:54;;;;;;;;;0.00;0.00;;;;;9.30;100.00;100748.13;6265059;22;49673;-67
2023/01/09 15:25:19;;;;;;;;;1.00;0.00;;;;;9.38;100.00;100764.94;6265264;22;49788;-67
2023/01/09 15:27:49;;;;;;;;;1.50;1.50;;;;;9.26;100.00;100748.88;6267346;22;49706;-67
2023/01/09 15:30:19;;;;;;;;;0.00;0.00;;;;;9.34;100.00;100767.44;6267265;22;50604;-67
2023/01/09 15:32:48;;;;;;;;;0.50;0.00;;;;;9.05;100.00;100719.53;6265654;22;49583;-67
2023/01/09 15:35:14;;;;;;;;;2.00;1.00;;;;;9.26;100.00;100768.97;6266909;22;49676;-67
2023/01/09 15:37:39;;;;;;;;;0.75;0.75;;;;;8.98;100.00;100721.13;6267143;22;49782;-69
2023/01/09 15:40:12;;;;;;;;;0.00;0.00;;;;;9.22;100.00;100778.47;6267702;22;49708;-67
2023/01/09 15:42:57;;;;;;;;;5.75;4.50;;;;;8.88;100.00;100727.84;6267426;22;49701;-68
2023/01/09 15:45:22;;;;;;;;;5.75;4.50;;;;;9.20;100.00;100779.28;6267589;22;49713;-67
2023/01/09 15:47:47;;;;;;;;;4.50;2.00;;;;;9.00;100.00;100765.66;6266074;22;49874;-66
2023/01/09 15:50:16;;;;;;;;;0.50;0.25;;;;;9.14;100.00;100790.47;6267571;22;50841;-67
2023/01/09 15:52:42;;;;;;;;;0.00;0.00;;;;;9.12;100.00;100795.69;6264380;22;49628;-66
2023/01/09 15:55:33;;;;;;;;;4.00;2.75;;;;;9.08;100.00;100812.16;6267501;22;49696;-67
2023/01/09 15:58:00;;;;;;;;;3.00;1.50;;;;;9.09;100.00;100815.69;6267078;22;49616;-65
2023/01/09 16:00:28;;;;;;;;;7.50;3.25;;;;;9.03;100.00;100824.22;6267145;22;49854;-64
2023/01/09 16:03:09;;;;;;;;;0.75;0.00;;;;;8.88;100.00;100809.00;6267325;22;49691;-64
2023/01/09 16:05:39;;;;;;;;;1.25;0.50;;;;;8.74;100.00;100789.38;6266810;22;49704;-64
2023/01/09 16:08:04;;;;;;;;;1.00;1.00;;;;;8.55;100.00;100777.50;6267224;22;49719;-67
2023/01/09 16:10:34;;;;;;;;;3.00;3.00;;;;;8.65;100.00;100803.94;6266295;22;50767;-63
2023/01/09 16:13:01;;;;;;;;;1.25;1.25;;;;;8.59;100.00;100807.28;6267174;22;49558;-64
2023/01/09 16:15:32;;;;;;;;;3.75;2.00;;;;;8.52;100.00;100814.03;6266186;22;50027;-68
2023/01/09 16:18:03;;;;;;;;;2.00;2.00;;;;;8.71;100.00;100864.31;6267365;22;49730;-69
2023/01/09 16:20:29;;;;;;;;;4.50;3.00;;;;;8.28;100.00;100814.13;6267173;22;50544;-68
2023/01/09 16:22:55;;;;;;;;;4.00;2.75;;;;;8.59;100.00;100891.00;6264181;22;49769;-69
2023/01/09 16:25:31;;;;;;;;;2.00;2.00;;;;;8.19;100.00;100832.16;6264060;22;49677;-72
2023/01/09 16:28:14;;;;;;;;;3.00;2.00;;;;;8.52;100.00;100900.38;6266908;22;49683;-69
2023/01/09 16:31:27;;;;;;;;;5.75;4.00;;;;;8.33;100.00;100890.16;6264576;22;51316;-69
2023/01/09 16:34:05;;;;;;;;;4.25;1.50;;;;;8.41;100.00;100912.25;6255625;22;49669;-69
2023/01/09 16:36:32;;;;;;;;;3.00;2.00;;;;;8.47;100.00;100949.06;6264602;22;50057;-69
2023/01/09 16:39:00;;;;;;;;;5.50;2.00;;;;;8.04;100.00;100869.19;6266807;22;49607;-74
2023/01/09 16:44:09;;;;;;;;;0.50;0.50;;;;;8.48;100.00;100953.44;6268002;22;49657;-67
2023/01/09 16:46:38;;;;;;;;;2.25;1.50;;;;;8.52;100.00;100957.06;6268707;22;49696;-65
2023/01/09 16:49:22;;;;;;;;;1.50;1.00;;;;;8.35;100.00;100926.84;6268738;22;49515;-75
2023/01/09 16:51:48;;;;;;;;;1.50;1.00;;;;;8.45;100.00;100939.38;6266424;22;49826;-66
2023/01/09 16:54:15;;;;;;;;;6.75;3.00;;;;;8.37;100.00;100939.13;6263936;22;49815;-66
2023/01/09 16:56:42;;;;;;;;;2.00;1.00;;;;;8.50;100.00;100982.31;6266641;22;49533;-66
2023/01/09 16:59:23;;;;;;;;;9.00;3.25;;;;;8.44;100.00;100990.81;6265749;22;49986;-64
2023/01/09 17:01:49;;;;;;;;;1.50;1.25;;;;;8.10;100.00;100985.25;6266199;22;49943;-75
2023/01/09 17:04:22;;;;;;;;;1.00;1.00;;;;;7.75;100.00;100996.28;6267131;22;49731;-62
2023/01/09 17:06:48;;;;;;;;;2.50;1.75;;;;;7.67;100.00;101036.91;6266555;22;49536;-65
2023/01/09 17:09:16;;;;;;;;;0.00;0.00;;;;;7.18;100.00;101019.41;6265574;22;49649;-65
2023/01/09 17:11:42;;;;;;;;;2.50;1.00;;;;;7.18;100.00;101049.84;6266653;22;50427;-67
2023/01/09 17:14:10;;;;;;;;;1.00;1.00;;;;;7.23;100.00;101087.44;6266459;22;49677;-68
2023/01/09 17:16:36;;;;;;;;;1.00;1.00;;;;;7.06;100.00;101101.56;6266864;22;49743;-71
2023/01/09 17:19:03;;;;;;;;;1.00;0.25;;;;;6.63;100.00;101038.91;6265251;22;49984;-70
2023/01/09 17:21:29;;;;;;;;;1.50;1.00;;;;;6.97;100.00;101083.81;6265583;22;50669;-70
2023/01/09 17:29:39;;;;;;;;;1.50;1.50;;;;;7.21;100.00;101099.56;6231361;22;50037;-69
2023/01/09 17:32:05;;;;;;;;;5.75;2.00;;;;;7.09;100.00;101088.63;6273426;22;49851;-70
2023/01/09 17:34:30;;;;;;;;;3.00;2.50;;;;;7.26;100.00;101131.97;6267127;22;49758;-70
2023/01/09 17:36:55;;;;;;;;;2.50;0.75;;;;;7.22;100.00;101123.94;6265903;22;55854;-68
2023/01/09 17:39:22;;;;;;;;;2.25;1.00;;;;;7.14;100.00;101101.06;6266837;22;49735;-70
2023/01/09 17:41:48;;;;;;;;;0.50;0.50;;;;;7.26;100.00;101104.97;6266546;22;49828;-68
2023/01/09 17:44:13;;;;;;;;;5.00;2.50;;;;;7.09;100.00;101078.19;6265913;22;49625;-69
2023/01/09 17:46:41;;;;;;;;;1.75;1.75;;;;;7.22;100.00;101119.63;6263724;22;49807;-71
2023/01/09 17:49:18;;;;;;;;;1.25;1.25;;;;;7.20;100.00;101112.56;6266914;22;49926;-69
2023/01/09 17:51:44;;;;;;;;;3.50;2.50;;;;;7.17;100.00;101129.88;6263633;22;52207;-69
2023/01/09 17:54:09;;;;;;;;;4.50;4.50;;;;;7.07;100.00;101105.97;6265788;22;50629;-71
2023/01/09 17:56:38;;;;;;;;;3.00;3.00;;;;;6.79;100.00;101070.03;6266340;22;49697;-71